Time;durP1;ratioP1;P1;durP2;ratioP2;P2;SDS_P1;SDS_P2;PMS_P1;PMS_P2;Temp;Humidity;BMP_temperature;BMP_pressure;BME280_temperature;BME280_humidity;BME280_pressure;Samples;Min_cycle;Max_cycle;Signal;HPM_P1;HPM_P2
2024/01/29 00:00:26;;;;;;;7.60;3.78;;;;;;;;;;5032099;28;20038;-75
2024/01/29 00:02:52;;;;;;;7.45;3.90;;;;;;;;;;5033062;28;20128;-74
2024/01/29 00:05:18;;;;;;;5.75;3.80;;;;;;;;;;5016290;28;20049;-74
2024/01/29 00:07:44;;;;;;;5.43;3.33;;;;;;;;;;5031893;28;20053;-75
2024/01/29 00:10:11;;;;;;;7.68;4.00;;;;;;;;;;5032648;28;20046;-75
2024/01/29 00:12:37;;;;;;;7.40;3.72;;;;;;;;;;5016050;28;20041;-75
2024/01/29 00:15:03;;;;;;;4.90;3.53;;;;;;;;;;5016057;28;20049;-75
2024/01/29 00:17:29;;;;;;;4.97;3.47;;;;;;;;;;5031766;28;20042;-75
2024/01/29 00:19:55;;;;;;;6.68;4.43;;;;;;;;;;5032451;28;20041;-74
2024/01/29 00:22:21;;;;;;;5.05;3.20;;;;;;;;;;5032447;28;20418;-75
2024/01/29 00:24:47;;;;;;;5.45;3.30;;;;;;;;;;5016207;28;20084;-75
2024/01/29 00:27:13;;;;;;;4.85;3.67;;;;;;;;;;5031744;28;20099;-75
2024/01/29 00:29:39;;;;;;;5.85;3.97;;;;;;;;;;5031496;28;20045;-74
2024/01/29 00:32:06;;;;;;;6.38;3.92;;;;;;;;;;5031444;28;20045;-74
2024/01/29 00:34:32;;;;;;;6.25;3.85;;;;;;;;;;5014768;28;20041;-76
2024/01/29 00:36:58;;;;;;;5.90;3.50;;;;;;;;;;5031507;28;20486;-74
2024/01/29 00:39:24;;;;;;;6.72;3.55;;;;;;;;;;5015947;28;20037;-72
2024/01/29 00:41:50;;;;;;;4.35;3.45;;;;;;;;;;5031938;28;20041;-72
2024/01/29 00:44:17;;;;;;;4.47;3.60;;;;;;;;;;5032066;28;20037;-72
2024/01/29 00:46:43;;;;;;;8.27;3.88;;;;;;;;;;5031436;28;20052;-72
2024/01/29 00:49:09;;;;;;;10.05;4.68;;;;;;;;;;5031302;28;20077;-72
2024/01/29 00:51:35;;;;;;;8.35;3.97;;;;;;;;;;5031830;28;20084;-72
2024/01/29 00:54:02;;;;;;;6.60;3.88;;;;;;;;;;5031869;28;20045;-72
2024/01/29 00:56:28;;;;;;;6.50;3.70;;;;;;;;;;5030998;28;20057;-72
2024/01/29 00:58:54;;;;;;;9.85;4.53;;;;;;;;;;5015182;28;20541;-72
2024/01/29 01:01:20;;;;;;;7.90;3.70;;;;;;;;;;5031692;28;20055;-72
2024/01/29 01:03:46;;;;;;;4.10;3.33;;;;;;;;;;5031654;28;20075;-72
2024/01/29 01:06:12;;;;;;;6.38;4.38;;;;;;;;;;5031616;28;20069;-72
2024/01/29 01:08:38;;;;;;;8.85;4.40;;;;;;;;;;5014494;28;20124;-72
2024/01/29 01:11:04;;;;;;;5.68;4.03;;;;;;;;;;5031132;28;20098;-72
2024/01/29 01:13:30;;;;;;;10.32;4.60;;;;;;;;;;5014552;28;20052;-72
2024/01/29 01:15:56;;;;;;;8.38;4.22;;;;;;;;;;5031322;28;20041;-72
2024/01/29 01:18:22;;;;;;;6.07;3.92;;;;;;;;;;5030239;28;20037;-72
2024/01/29 01:20:48;;;;;;;7.68;4.55;;;;;;;;;;5031339;28;20397;-72
2024/01/29 01:23:14;;;;;;;7.88;4.15;;;;;;;;;;5031239;28;20099;-72
2024/01/29 01:25:40;;;;;;;6.43;3.92;;;;;;;;;;5031206;28;20552;-72
2024/01/29 01:28:07;;;;;;;6.10;3.88;;;;;;;;;;5030503;28;20069;-72
2024/01/29 01:30:33;;;;;;;8.30;3.97;;;;;;;;;;5014551;28;20045;-72
2024/01/29 01:32:59;;;;;;;6.43;3.70;;;;;;;;;;5031140;28;20052;-72
2024/01/29 01:35:25;;;;;;;9.75;4.75;;;;;;;;;;5031055;28;20497;-72
2024/01/29 01:37:51;;;;;;;6.85;4.57;;;;;;;;;;5013660;28;20073;-72
2024/01/29 01:40:17;;;;;;;10.93;4.53;;;;;;;;;;5030874;28;20033;-72
2024/01/29 01:42:44;;;;;;;7.30;4.70;;;;;;;;;;5030809;28;20045;-72
2024/01/29 01:45:10;;;;;;;6.90;4.18;;;;;;;;;;5014512;28;20037;-72
2024/01/29 01:47:36;;;;;;;4.97;3.80;;;;;;;;;;5030162;28;20398;-72
2024/01/29 01:50:03;;;;;;;7.63;4.53;;;;;;;;;;5014265;28;20041;-72
2024/01/29 01:52:29;;;;;;;6.60;4.20;;;;;;;;;;5014594;28;20052;-72
2024/01/29 01:54:56;;;;;;;7.22;4.25;;;;;;;;;;5030512;28;20037;-72
2024/01/29 01:57:22;;;;;;;9.45;5.05;;;;;;;;;;5029950;28;20124;-72
2024/01/29 01:59:49;;;;;;;6.60;4.03;;;;;;;;;;5030477;28;20077;-72
2024/01/29 02:02:15;;;;;;;7.70;4.45;;;;;;;;;;5030652;28;20039;-72
2024/01/29 02:04:41;;;;;;;6.78;4.22;;;;;;;;;;5030597;28;20041;-72
2024/01/29 02:07:07;;;;;;;7.68;4.38;;;;;;;;;;5029799;28;20045;-72
2024/01/29 02:09:33;;;;;;;7.13;4.55;;;;;;;;;;5030394;28;20103;-75
2024/01/29 02:11:59;;;;;;;6.82;4.45;;;;;;;;;;5030723;28;20080;-74
2024/01/29 02:14:26;;;;;;;8.20;4.30;;;;;;;;;;5030510;28;20128;-75
2024/01/29 02:16:52;;;;;;;6.40;4.20;;;;;;;;;;5029792;28;20045;-75
2024/01/29 02:19:18;;;;;;;6.32;4.28;;;;;;;;;;5030265;28;20159;-74
2024/01/29 02:21:44;;;;;;;9.52;4.97;;;;;;;;;;5030539;28;20042;-75
2024/01/29 02:24:10;;;;;;;6.53;5.10;;;;;;;;;;5030087;28;20034;-74
2024/01/29 02:26:36;;;;;;;5.78;4.60;;;;;;;;;;5029951;28;20401;-75
2024/01/29 02:29:03;;;;;;;8.00;4.35;;;;;;;;;;5030443;28;20386;-75
2024/01/29 02:31:29;;;;;;;6.07;5.03;;;;;;;;;;5036800;28;20048;-74
2024/01/29 02:33:55;;;;;;;9.30;5.28;;;;;;;;;;5048650;28;20504;-73
2024/01/29 02:36:21;;;;;;;9.18;4.50;;;;;;;;;;5049733;28;20048;-72
2024/01/29 02:38:47;;;;;;;7.20;4.13;;;;;;;;;;5048986;28;20569;-73
2024/01/29 02:41:13;;;;;;;8.05;4.20;;;;;;;;;;5050234;28;20049;-73
2024/01/29 02:43:40;;;;;;;9.20;4.43;;;;;;;;;;5050121;28;20118;-73
2024/01/29 02:46:06;;;;;;;9.60;4.28;;;;;;;;;;5050346;28;20045;-73
2024/01/29 02:48:32;;;;;;;7.30;4.47;;;;;;;;;;5049228;28;20037;-73
2024/01/29 02:50:58;;;;;;;8.98;4.32;;;;;;;;;;5050383;28;20051;-72
2024/01/29 02:53:24;;;;;;;6.90;4.53;;;;;;;;;;5051004;28;20049;-72
2024/01/29 02:55:50;;;;;;;7.72;4.57;;;;;;;;;;5050007;28;20511;-72
2024/01/29 02:58:16;;;;;;;6.97;4.72;;;;;;;;;;5049143;28;20049;-73
2024/01/29 03:00:42;;;;;;;6.93;3.92;;;;;;;;;;5050242;28;20033;-73
2024/01/29 03:03:08;;;;;;;4.72;4.05;;;;;;;;;;5050039;28;20532;-73
2024/01/29 03:05:34;;;;;;;6.97;4.25;;;;;;;;;;5049919;28;20045;-73
2024/01/29 03:08:01;;;;;;;8.15;4.88;;;;;;;;;;5049093;28;20045;-73
2024/01/29 03:10:27;;;;;;;8.70;4.95;;;;;;;;;;5049901;28;20041;-72
2024/01/29 03:12:54;;;;;;;5.70;4.03;;;;;;;;;;5050168;28;20041;-73
2024/01/29 03:15:20;;;;;;;8.52;5.07;;;;;;;;;;5050162;28;20124;-73
2024/01/29 03:17:46;;;;;;;6.60;5.05;;;;;;;;;;5048912;28;20040;-73
2024/01/29 03:20:12;;;;;;;5.97;4.63;;;;;;;;;;5049937;28;20048;-73
2024/01/29 03:22:38;;;;;;;12.57;5.22;;;;;;;;;;5049740;28;20044;-73
2024/01/29 03:25:05;;;;;;;5.45;4.43;;;;;;;;;;5049570;28;20508;-73
2024/01/29 03:27:31;;;;;;;6.47;4.75;;;;;;;;;;5049003;28;20045;-73
2024/01/29 03:29:57;;;;;;;5.93;4.78;;;;;;;;;;5049452;28;20060;-73
2024/01/29 03:32:23;;;;;;;10.15;5.35;;;;;;;;;;5049634;28;20538;-73
2024/01/29 03:34:49;;;;;;;6.40;5.03;;;;;;;;;;5049982;28;20083;-73
2024/01/29 03:37:15;;;;;;;7.07;4.68;;;;;;;;;;5052496;28;20051;-73
2024/01/29 03:39:41;;;;;;;9.10;5.53;;;;;;;;;;5053136;28;20039;-73
2024/01/29 03:42:07;;;;;;;7.28;4.65;;;;;;;;;;5053205;28;20037;-72
2024/01/29 03:44:33;;;;;;;8.90;4.93;;;;;;;;;;5053227;28;20037;-73
2024/01/29 03:46:58;;;;;;;7.05;4.95;;;;;;;;;;5052349;28;20041;-73
2024/01/29 03:49:24;;;;;;;8.48;5.25;;;;;;;;;;5052907;28;20080;-73
2024/01/29 03:51:50;;;;;;;8.05;5.57;;;;;;;;;;5052977;28;20401;-72
2024/01/29 03:54:16;;;;;;;8.07;5.13;;;;;;;;;;5053195;28;20045;-72
2024/01/29 03:56:43;;;;;;;10.30;5.05;;;;;;;;;;5052225;28;20527;-73
2024/01/29 03:59:11;;;;;;;9.32;4.90;;;;;;;;;;5052778;28;20040;-72
2024/01/29 04:01:37;;;;;;;7.65;4.93;;;;;;;;;;5053022;28;20048;-72
2024/01/29 04:04:03;;;;;;;7.63;5.38;;;;;;;;;;5052763;28;20062;-73
2024/01/29 04:06:29;;;;;;;9.18;5.60;;;;;;;;;;5052761;28;20059;-72
2024/01/29 04:08:55;;;;;;;12.90;5.55;;;;;;;;;;5052645;28;20436;-73
2024/01/29 04:11:21;;;;;;;9.38;5.38;;;;;;;;;;5052606;28;20059;-73
2024/01/29 04:13:47;;;;;;;7.40;5.20;;;;;;;;;;5052529;28;20174;-72
2024/01/29 04:16:13;;;;;;;10.48;5.97;;;;;;;;;;5052304;28;20045;-72
2024/01/29 04:18:39;;;;;;;8.18;5.22;;;;;;;;;;5051556;28;20059;-73
2024/01/29 04:21:06;;;;;;;6.97;5.20;;;;;;;;;;5052713;28;20047;-73
2024/01/29 04:23:32;;;;;;;7.78;4.90;;;;;;;;;;5052577;28;20045;-73
2024/01/29 04:25:58;;;;;;;7.78;4.88;;;;;;;;;;5052323;28;20045;-73
2024/01/29 04:28:24;;;;;;;10.88;7.07;;;;;;;;;;5051037;28;20041;-73
2024/01/29 04:30:50;;;;;;;10.00;4.78;;;;;;;;;;5052097;28;20094;-73
2024/01/29 04:33:16;;;;;;;8.55;5.05;;;;;;;;;;5052286;28;20044;-75
2024/01/29 04:35:42;;;;;;;8.07;5.10;;;;;;;;;;5052148;28;20041;-72
2024/01/29 04:38:08;;;;;;;10.95;5.97;;;;;;;;;;5051100;28;20074;-73
2024/01/29 04:40:39;;;;;;;9.50;5.88;;;;;;;;;;5052306;28;20400;-73
2024/01/29 04:43:05;;;;;;;7.70;5.45;;;;;;;;;;5052348;28;20060;-73
2024/01/29 04:45:31;;;;;;;8.68;5.72;;;;;;;;;;5052130;28;20041;-72
2024/01/29 04:47:57;;;;;;;9.93;5.15;;;;;;;;;;5050830;28;20066;-73
2024/01/29 04:50:23;;;;;;;7.40;5.43;;;;;;;;;;5052145;28;20083;-72
2024/01/29 04:52:49;;;;;;;7.45;5.47;;;;;;;;;;5051839;28;20079;-73
2024/01/29 04:55:15;;;;;;;8.27;5.60;;;;;;;;;;5051794;28;20538;-72
2024/01/29 04:57:41;;;;;;;6.70;5.28;;;;;;;;;;5051073;28;20412;-72
2024/01/29 05:00:08;;;;;;;9.65;5.63;;;;;;;;;;5051795;28;20108;-72
2024/01/29 05:02:34;;;;;;;8.77;5.63;;;;;;;;;;5051967;28;20408;-72
2024/01/29 05:05:00;;;;;;;8.57;5.53;;;;;;;;;;5051850;28;20124;-72
2024/01/29 05:07:26;;;;;;;8.85;5.75;;;;;;;;;;5050825;28;20124;-73
2024/01/29 05:09:52;;;;;;;11.35;6.20;;;;;;;;;;5051386;28;20474;-72
2024/01/29 05:12:18;;;;;;;7.43;5.35;;;;;;;;;;5051572;28;20048;-72
2024/01/29 05:14:44;;;;;;;7.90;5.57;;;;;;;;;;5051211;28;20559;-72
2024/01/29 05:17:10;;;;;;;11.93;5.78;;;;;;;;;;5050783;28;20037;-73
2024/01/29 05:19:38;;;;;;;9.15;5.47;;;;;;;;;;5051297;28;20041;-72
2024/01/29 05:22:04;;;;;;;10.02;5.40;;;;;;;;;;5051175;28;20044;-73
2024/01/29 05:24:30;;;;;;;11.48;5.63;;;;;;;;;;5051213;28;20036;-73
2024/01/29 05:26:56;;;;;;;9.75;5.25;;;;;;;;;;5050504;28;20511;-72
2024/01/29 05:29:22;;;;;;;8.77;5.25;;;;;;;;;;5050793;28;20041;-72
2024/01/29 05:31:48;;;;;;;8.57;5.22;;;;;;;;;;5051024;28;20044;-72
2024/01/29 05:34:14;;;;;;;7.40;5.57;;;;;;;;;;5051080;28;20045;-72
2024/01/29 05:36:40;;;;;;;9.65;5.47;;;;;;;;;;5050214;28;20045;-72
2024/01/29 05:39:06;;;;;;;8.32;5.82;;;;;;;;;;5050625;28;20037;-72
2024/01/29 05:41:32;;;;;;;7.78;5.82;;;;;;;;;;5051134;28;20032;-72
2024/01/29 05:43:59;;;;;;;11.23;6.28;;;;;;;;;;5050853;28;20041;-73
2024/01/29 05:46:25;;;;;;;12.50;6.03;;;;;;;;;;5051035;28;20102;-72
2024/01/29 05:48:51;;;;;;;6.95;5.60;;;;;;;;;;5049685;28;20041;-72
2024/01/29 05:51:17;;;;;;;9.27;5.72;;;;;;;;;;5051012;28;20105;-73
2024/01/29 05:53:43;;;;;;;8.40;5.70;;;;;;;;;;5050720;28;20089;-73
2024/01/29 05:56:09;;;;;;;11.25;6.35;;;;;;;;;;5050851;28;20045;-73
2024/01/29 05:58:36;;;;;;;7.60;5.72;;;;;;;;;;5049216;28;20079;-73
2024/01/29 06:01:02;;;;;;;10.20;5.97;;;;;;;;;;5050694;28;20045;-72
2024/01/29 06:03:29;;;;;;;12.90;6.75;;;;;;;;;;5050583;28;20037;-73
2024/01/29 06:05:55;;;;;;;9.45;6.47;;;;;;;;;;5050430;28;20536;-72
2024/01/29 06:08:21;;;;;;;11.93;6.85;;;;;;;;;;5049889;28;20445;-72
2024/01/29 06:10:47;;;;;;;11.73;6.20;;;;;;;;;;5050294;28;20044;-72
2024/01/29 06:13:13;;;;;;;8.65;5.97;;;;;;;;;;5050493;28;20044;-73
2024/01/29 06:15:39;;;;;;;8.88;6.38;;;;;;;;;;5050601;28;20041;-73
2024/01/29 06:18:06;;;;;;;9.32;6.28;;;;;;;;;;5049482;28;20095;-73
2024/01/29 06:20:32;;;;;;;10.50;6.82;;;;;;;;;;5050260;28;20079;-72
2024/01/29 06:22:57;;;;;;;11.32;6.28;;;;;;;;;;5050292;28;20540;-72
2024/01/29 06:25:24;;;;;;;10.85;6.47;;;;;;;;;;5050153;28;20041;-72
2024/01/29 06:27:49;;;;;;;9.25;6.05;;;;;;;;;;5049331;28;20645;-72
2024/01/29 06:30:16;;;;;;;9.07;6.60;;;;;;;;;;5050176;28;20079;-72
2024/01/29 06:32:42;;;;;;;8.43;6.07;;;;;;;;;;5049910;28;20505;-73
2024/01/29 06:35:08;;;;;;;10.27;5.78;;;;;;;;;;5048444;28;20127;-73
2024/01/29 06:37:34;;;;;;;7.97;6.63;;;;;;;;;;5048692;28;20090;-73
2024/01/29 06:40:00;;;;;;;11.57;5.70;;;;;;;;;;5050731;28;20040;-73
2024/01/29 06:42:26;;;;;;;10.57;6.55;;;;;;;;;;5050120;28;20500;-73
2024/01/29 06:44:53;;;;;;;11.75;6.65;;;;;;;;;;5049811;28;20033;-72
2024/01/29 06:47:19;;;;;;;9.27;6.63;;;;;;;;;;5049271;28;20174;-72
2024/01/29 06:49:45;;;;;;;11.98;6.45;;;;;;;;;;5049788;28;20131;-72
2024/01/29 06:52:11;;;;;;;11.23;6.28;;;;;;;;;;5050318;28;20067;-73
2024/01/29 06:54:37;;;;;;;9.48;6.50;;;;;;;;;;5049921;28;20041;-72
2024/01/29 06:57:03;;;;;;;14.85;7.03;;;;;;;;;;5048227;28;20073;-73
2024/01/29 06:59:29;;;;;;;11.43;7.72;;;;;;;;;;5049183;28;20095;-73
2024/01/29 07:01:59;;;;;;;9.73;6.78;;;;;;;;;;5049254;28;20037;-73
2024/01/29 07:04:25;;;;;;;11.60;7.07;;;;;;;;;;5049629;28;20080;-73
2024/01/29 07:06:51;;;;;;;10.07;6.50;;;;;;;;;;5048967;28;20045;-72
2024/01/29 07:09:17;;;;;;;9.98;6.75;;;;;;;;;;5049990;28;20037;-73
2024/01/29 07:11:44;;;;;;;10.85;6.63;;;;;;;;;;5052515;28;20041;-74
2024/01/29 07:14:10;;;;;;;9.18;6.72;;;;;;;;;;5048964;28;20053;-73
2024/01/29 07:16:36;;;;;;;10.82;6.43;;;;;;;;;;5035461;28;20553;-73
2024/01/29 07:19:02;;;;;;;9.38;6.43;;;;;;;;;;5042566;28;20065;-73
2024/01/29 07:21:28;;;;;;;18.35;7.53;;;;;;;;;;5050461;28;20064;-73
2024/01/29 07:23:54;;;;;;;12.80;7.50;;;;;;;;;;5046121;28;20071;-73
2024/01/29 07:26:20;;;;;;;11.02;7.38;;;;;;;;;;5050248;28;20040;-73
2024/01/29 07:28:46;;;;;;;11.15;7.10;;;;;;;;;;5049254;28;20039;-72
2024/01/29 07:31:12;;;;;;;13.27;7.70;;;;;;;;;;5050530;28;20075;-73
2024/01/29 07:33:37;;;;;;;10.88;6.53;;;;;;;;;;5044110;28;20041;-73
2024/01/29 07:36:04;;;;;;;12.35;6.97;;;;;;;;;;5040251;28;20041;-72
2024/01/29 07:38:30;;;;;;;11.52;8.13;;;;;;;;;;5034307;28;20042;-72
2024/01/29 07:40:56;;;;;;;9.10;7.05;;;;;;;;;;5024600;28;20033;-72
2024/01/29 07:43:22;;;;;;;15.25;7.10;;;;;;;;;;5044619;28;20052;-72
2024/01/29 07:45:48;;;;;;;12.70;7.50;;;;;;;;;;5037031;28;20046;-71
2024/01/29 07:48:14;;;;;;;12.07;7.25;;;;;;;;;;5026930;28;20419;-71
2024/01/29 07:50:40;;;;;;;11.55;7.15;;;;;;;;;;5037615;28;20080;-71
2024/01/29 07:53:06;;;;;;;10.65;6.95;;;;;;;;;;5036010;28;20049;-70
2024/01/29 07:55:32;;;;;;;12.10;7.50;;;;;;;;;;5036767;28;20041;-72
2024/01/29 07:57:58;;;;;;;10.50;7.22;;;;;;;;;;5041905;28;20036;-72
2024/01/29 08:00:24;;;;;;;10.00;6.78;;;;;;;;;;5039712;28;20037;-73
2024/01/29 08:02:51;;;;;;;12.35;7.53;;;;;;;;;;5044166;28;20167;-73
2024/01/29 08:05:17;;;;;;;9.13;7.25;;;;;;;;;;5024457;28;20069;-73
2024/01/29 08:07:43;;;;;;;12.30;7.60;;;;;;;;;;5042503;28;20249;-73
2024/01/29 08:10:09;;;;;;;9.25;7.15;;;;;;;;;;5038426;28;20365;-73
2024/01/29 08:12:35;;;;;;;10.60;7.32;;;;;;;;;;5048705;28;20055;-73
2024/01/29 08:15:01;;;;;;;11.25;8.00;;;;;;;;;;5049530;28;20128;-73
2024/01/29 08:17:27;;;;;;;11.73;8.23;;;;;;;;;;5040059;28;20658;-73
2024/01/29 08:19:53;;;;;;;11.63;7.65;;;;;;;;;;5034747;28;20037;-73
2024/01/29 08:22:19;;;;;;;11.73;7.38;;;;;;;;;;5034882;28;20045;-73
2024/01/29 08:24:45;;;;;;;12.18;8.07;;;;;;;;;;5045576;28;20078;-73
2024/01/29 08:27:11;;;;;;;14.10;7.85;;;;;;;;;;5048427;28;20044;-73
2024/01/29 08:29:37;;;;;;;11.40;7.57;;;;;;;;;;5047548;28;20420;-73
2024/01/29 08:32:04;;;;;;;12.05;7.68;;;;;;;;;;5046848;28;20127;-73
2024/01/29 08:34:30;;;;;;;12.40;8.00;;;;;;;;;;5042444;28;20033;-73
2024/01/29 08:36:56;;;;;;;12.80;8.23;;;;;;;;;;5049440;28;20583;-73
2024/01/29 08:39:23;;;;;;;14.07;9.10;;;;;;;;;;5016095;28;20060;-73
2024/01/29 08:41:49;;;;;;;12.85;7.53;;;;;;;;;;5043546;28;20044;-73
2024/01/29 08:44:15;;;;;;;11.73;8.45;;;;;;;;;;5052177;28;20041;-74
2024/01/29 08:46:41;;;;;;;10.90;7.80;;;;;;;;;;5051037;28;20119;-74
2024/01/29 08:49:07;;;;;;;13.55;7.90;;;;;;;;;;5051446;28;20090;-74
2024/01/29 08:51:34;;;;;;;26.02;9.90;;;;;;;;;;5051712;28;20053;-74
2024/01/29 08:54:00;;;;;;;13.30;8.73;;;;;;;;;;5048725;28;20037;-74
2024/01/29 08:56:26;;;;;;;14.07;8.77;;;;;;;;;;5051427;28;20045;-74
2024/01/29 08:58:52;;;;;;;13.77;9.35;;;;;;;;;;5050444;28;20044;-73
2024/01/29 09:01:18;;;;;;;12.55;8.35;;;;;;;;;;5051056;28;20045;-74
2024/01/29 09:03:44;;;;;;;11.50;7.95;;;;;;;;;;5050861;28;20041;-73
2024/01/29 09:06:10;;;;;;;10.98;8.40;;;;;;;;;;5050906;28;20697;-73
2024/01/29 09:08:36;;;;;;;17.00;8.88;;;;;;;;;;5033421;28;20127;-73
2024/01/29 09:11:03;;;;;;;15.63;9.27;;;;;;;;;;5051137;28;20044;-72
2024/01/29 09:13:28;;;;;;;12.57;8.52;;;;;;;;;;5050823;28;20175;-73
2024/01/29 09:15:54;;;;;;;10.13;7.97;;;;;;;;;;5051309;28;20094;-73
2024/01/29 09:18:20;;;;;;;15.60;8.98;;;;;;;;;;5033182;28;20468;-73
2024/01/29 09:20:46;;;;;;;12.32;8.88;;;;;;;;;;5050741;28;20179;-73
2024/01/29 09:23:12;;;;;;;14.90;8.43;;;;;;;;;;5050657;28;20043;-73
2024/01/29 09:25:38;;;;;;;15.50;8.27;;;;;;;;;;5034231;28;20059;-73
2024/01/29 09:28:05;;;;;;;17.08;10.25;;;;;;;;;;5049881;28;20051;-73
2024/01/29 09:30:31;;;;;;;15.88;10.23;;;;;;;;;;5032411;28;20060;-73
2024/01/29 09:32:57;;;;;;;13.43;9.90;;;;;;;;;;5049913;28;20100;-73
2024/01/29 09:35:23;;;;;;;14.57;9.32;;;;;;;;;;5050917;28;20327;-73
2024/01/29 09:37:49;;;;;;;17.95;8.70;;;;;;;;;;5032703;28;20120;-74
2024/01/29 09:40:15;;;;;;;16.48;9.07;;;;;;;;;;5051321;28;20128;-74
2024/01/29 09:42:41;;;;;;;14.18;9.68;;;;;;;;;;5050637;28;20037;-73
2024/01/29 09:45:11;;;;;;;11.45;8.40;;;;;;;;;;5034224;28;20133;-73
2024/01/29 09:47:38;;;;;;;14.48;8.73;;;;;;;;;;5049896;28;20051;-73
2024/01/29 09:50:08;;;;;;;12.43;8.68;;;;;;;;;;5050445;28;20041;-73
2024/01/29 09:52:37;;;;;;;16.38;8.93;;;;;;;;;;5050532;28;20057;-73
2024/01/29 09:55:05;;;;;;;15.82;9.10;;;;;;;;;;5050746;28;20394;-73
2024/01/29 09:57:31;;;;;;;14.95;9.05;;;;;;;;;;5049854;28;20037;-73
2024/01/29 09:59:57;;;;;;;13.10;9.27;;;;;;;;;;5032964;28;20033;-73
2024/01/29 10:02:25;;;;;;;14.73;10.55;;;;;;;;;;5050041;28;20040;-73
2024/01/29 10:04:51;;;;;;;13.90;9.55;;;;;;;;;;5050122;28;20041;-73
2024/01/29 10:07:17;;;;;;;13.07;9.25;;;;;;;;;;5049597;28;20043;-73
2024/01/29 10:09:43;;;;;;;15.40;9.63;;;;;;;;;;5050016;28;20051;-73
2024/01/29 10:12:09;;;;;;;13.38;9.48;;;;;;;;;;5050250;28;20512;-73
2024/01/29 10:14:35;;;;;;;13.30;9.38;;;;;;;;;;5033375;28;20048;-73
2024/01/29 10:17:01;;;;;;;16.27;9.27;;;;;;;;;;5049452;28;20083;-73
2024/01/29 10:19:36;;;;;;;14.32;10.13;;;;;;;;;;5033265;28;20082;-73
2024/01/29 10:22:02;;;;;;;16.52;10.32;;;;;;;;;;5033055;28;20056;-73
2024/01/29 10:24:28;;;;;;;16.02;10.80;;;;;;;;;;5050015;28;20500;-73
2024/01/29 10:26:54;;;;;;;15.57;9.55;;;;;;;;;;5049355;28;20041;-73
2024/01/29 10:29:22;;;;;;;16.67;10.93;;;;;;;;;;5030690;28;20439;-73
2024/01/29 10:31:48;;;;;;;13.65;9.65;;;;;;;;;;5030435;28;20455;-73
2024/01/29 10:34:14;;;;;;;17.02;10.63;;;;;;;;;;5030103;28;20042;-73
2024/01/29 10:36:40;;;;;;;14.38;10.05;;;;;;;;;;5032157;28;20098;-73
2024/01/29 10:39:08;;;;;;;14.30;9.88;;;;;;;;;;5032899;28;20479;-76
2024/01/29 10:41:34;;;;;;;14.98;10.02;;;;;;;;;;5049889;28;20045;-74
2024/01/29 10:44:02;;;;;;;15.75;9.80;;;;;;;;;;5050437;28;20462;-74
2024/01/29 10:46:29;;;;;;;14.52;10.50;;;;;;;;;;5037246;28;20082;-74
2024/01/29 10:48:56;;;;;;;17.85;11.95;;;;;;;;;;5053250;28;20076;-74
2024/01/29 10:51:22;;;;;;;16.10;10.88;;;;;;;;;;5037756;28;20392;-75
2024/01/29 10:53:48;;;;;;;19.23;12.02;;;;;;;;;;5037358;28;20033;-74
2024/01/29 10:56:16;;;;;;;20.23;11.65;;;;;;;;;;5053694;28;20072;-74
2024/01/29 10:58:42;;;;;;;20.65;11.50;;;;;;;;;;5053002;28;20048;-74
2024/01/29 11:01:10;;;;;;;19.95;11.60;;;;;;;;;;5054024;28;20404;-74
2024/01/29 11:03:37;;;;;;;16.98;11.13;;;;;;;;;;5036681;28;20492;-75
2024/01/29 11:06:06;;;;;;;17.08;11.23;;;;;;;;;;5036946;28;20140;-73
2024/01/29 11:08:35;;;;;;;17.20;11.48;;;;;;;;;;5052656;28;20463;-73
2024/01/29 11:11:02;;;;;;;15.32;10.80;;;;;;;;;;5053700;28;20045;-74
2024/01/29 11:13:28;;;;;;;17.73;11.20;;;;;;;;;;5036396;28;20543;-74
2024/01/29 11:15:54;;;;;;;17.25;10.55;;;;;;;;;;5053698;28;20048;-74
2024/01/29 11:18:20;;;;;;;19.63;11.38;;;;;;;;;;5035899;28;20052;-73
2024/01/29 11:20:52;;;;;;;23.55;12.93;;;;;;;;;;5053174;28;20049;-74
2024/01/29 11:23:22;;;;;;;18.17;11.63;;;;;;;;;;5053184;28;20036;-73
2024/01/29 11:25:49;;;;;;;24.75;13.30;;;;;;;;;;5053386;28;20315;-73
2024/01/29 11:28:16;;;;;;;20.75;12.43;;;;;;;;;;5052152;28;20083;-73
2024/01/29 11:30:49;;;;;;;23.63;12.32;;;;;;;;;;5053274;28;20044;-74
2024/01/29 11:33:16;;;;;;;;;;;;;;;;;;5048569;28;20087;-74
2024/01/29 11:35:42;;;;;;;23.85;13.23;;;;;;;;;;5050602;28;20568;-74
2024/01/29 11:38:13;;;;;;;21.77;13.10;;;;;;;;;;5048747;28;20049;-73
2024/01/29 11:40:43;;;;;;;29.75;12.93;;;;;;;;;;5049777;28;20517;-73
2024/01/29 11:43:10;;;;;;;22.45;13.20;;;;;;;;;;5049722;28;20056;-73
2024/01/29 11:45:36;;;;;;;25.92;12.75;;;;;;;;;;5027519;28;20088;-73
2024/01/29 11:48:02;;;;;;;27.55;13.40;;;;;;;;;;5019869;28;20041;-73
2024/01/29 11:50:28;;;;;;;29.25;14.23;;;;;;;;;;5028646;28;20076;-73
2024/01/29 11:52:55;;;;;;;29.20;12.98;;;;;;;;;;5042867;28;20086;-73
2024/01/29 11:55:23;;;;;;;29.45;13.18;;;;;;;;;;5039944;28;20037;-73
2024/01/29 11:57:53;;;;;;;31.95;14.15;;;;;;;;;;5033450;28;20083;-73
2024/01/29 12:00:19;;;;;;;24.48;12.07;;;;;;;;;;5038159;28;20037;-73
2024/01/29 12:02:50;;;;;;;26.17;14.75;;;;;;;;;;5033864;28;20043;-73
2024/01/29 12:05:17;;;;;;;26.08;13.63;;;;;;;;;;5027638;28;20041;-72
2024/01/29 12:07:43;;;;;;;35.35;14.73;;;;;;;;;;5038364;28;20496;-73
2024/01/29 12:10:09;;;;;;;33.97;15.43;;;;;;;;;;5048831;28;20405;-73
2024/01/29 12:12:36;;;;;;;30.60;15.77;;;;;;;;;;5043462;28;20045;-73
2024/01/29 12:15:02;;;;;;;44.25;17.50;;;;;;;;;;5025438;28;20040;-72
2024/01/29 12:17:28;;;;;;;36.30;16.05;;;;;;;;;;5030944;28;20416;-73
2024/01/29 12:19:54;;;;;;;40.55;16.35;;;;;;;;;;5041352;28;20121;-72
2024/01/29 12:22:20;;;;;;;37.03;17.23;;;;;;;;;;5036960;28;20209;-73
2024/01/29 12:24:46;;;;;;;45.75;17.42;;;;;;;;;;5036228;28;20033;-73
2024/01/29 12:27:13;;;;;;;43.05;17.80;;;;;;;;;;5039580;28;20163;-73
2024/01/29 12:29:39;;;;;;;36.53;16.27;;;;;;;;;;5029510;28;20037;-73
2024/01/29 12:32:09;;;;;;;50.45;17.67;;;;;;;;;;5049802;28;20387;-73
2024/01/29 12:34:45;;;;;;;42.47;18.35;;;;;;;;;;5031970;28;20052;-73
2024/01/29 12:37:21;;;;;;;35.55;17.15;;;;;;;;;;5051119;28;20077;-73
2024/01/29 12:39:54;;;;;;;30.02;15.27;;;;;;;;;;5052174;28;20045;-75
2024/01/29 12:42:20;;;;;;;29.20;15.35;;;;;;;;;;5051874;28;20041;-75
2024/01/29 12:44:48;;;;;;;27.83;14.18;;;;;;;;;;5051656;28;20048;-75
2024/01/29 12:47:14;;;;;;;24.23;14.18;;;;;;;;;;5051410;28;20045;-76
2024/01/29 12:49:40;;;;;;;26.98;13.88;;;;;;;;;;5051651;28;20048;-75
2024/01/29 12:52:06;;;;;;;25.17;14.35;;;;;;;;;;5051694;28;20056;-75
2024/01/29 12:54:32;;;;;;;29.52;14.93;;;;;;;;;;5035017;28;20119;-75
2024/01/29 12:56:59;;;;;;;24.33;14.10;;;;;;;;;;5050993;28;20049;-75
2024/01/29 12:59:25;;;;;;;25.98;13.48;;;;;;;;;;5051452;28;20051;-75
2024/01/29 13:01:53;;;;;;;24.13;14.18;;;35.10;1.40;;;;;;5051541;28;20048;-75
2024/01/29 13:04:19;;;;;;;24.60;13.93;;;34.80;1.00;;;;;;5051593;28;20045;-75
2024/01/29 13:06:45;;;;;;;24.60;13.93;;;35.20;1.00;;;;;;5050705;28;20132;-75
2024/01/29 13:09:11;;;;;;;23.55;13.02;;;35.00;1.00;;;;;;5034641;28;20044;-75
2024/01/29 13:11:37;;;;;;;21.17;13.95;;;35.00;1.00;;;;;;5051475;28;20053;-75
2024/01/29 13:14:02;;;;;;;22.35;13.88;;;35.00;1.00;;;;;;5051262;28;20048;-75
2024/01/29 13:16:28;;;;;;;20.83;13.50;;;35.10;1.00;;;;;;5051065;28;20087;-75
2024/01/29 13:18:56;;;;;;;23.23;13.18;;;;;;;;;;5033910;28;20040;-75
2024/01/29 13:21:22;;;;;;;22.42;14.63;;;;;;;;;;5034942;28;20413;-76
2024/01/29 13:23:48;;;;;;;24.13;14.73;;;;;;;;;;5034669;28;20170;-75
2024/01/29 13:26:15;;;;;;;25.13;14.63;;;;;;;;;;5034449;28;20041;-75
2024/01/29 13:28:41;;;;;;;27.55;15.18;;;;;;;;;;5050257;28;20076;-75
2024/01/29 13:31:07;;;;;;;21.00;14.90;;;;;;;;;;5017734;28;20061;-75
2024/01/29 13:33:33;;;;;;;26.10;15.10;;;35.20;1.00;;;;;;5031085;28;20045;-75
2024/01/29 13:36:00;;;;;;;22.90;15.30;;;35.10;1.00;;;;;;5030968;28;20048;-75
2024/01/29 13:38:26;;;;;;;25.17;15.77;;;;;;;;;;5046675;28;20460;-75
2024/01/29 13:40:52;;;;;;;26.40;15.60;;;35.10;1.00;;;;;;5030497;28;20037;-75
2024/01/29 13:43:18;;;;;;;27.08;16.48;;;;;;;;;;5030914;28;20095;-75
2024/01/29 13:45:45;;;;;;;25.60;15.50;;;;;;;;;;5035337;28;20479;-75
2024/01/29 13:48:11;;;;;;;27.42;15.65;;;;;;;;;;5049497;28;20421;-75
2024/01/29 13:50:38;;;;;;;26.38;15.80;;;;;;;;;;5050214;28;20047;-75
2024/01/29 13:53:04;;;;;;;31.15;16.90;;;;;;;;;;5050167;28;20138;-75
2024/01/29 13:55:30;;;;;;;26.67;15.95;;;;;;;;;;5033404;28;20048;-76
2024/01/29 13:57:56;;;;;;;23.80;16.20;;;;;;;;;;5032275;28;20404;-75
2024/01/29 14:00:22;;;;;;;31.80;17.40;;;;;;;;;;5050024;28;20048;-76
2024/01/29 14:02:47;;;;;;;28.70;17.88;;;36.10;1.00;;;;;;5033742;28;20041;-75
2024/01/29 14:05:13;;;;;;;23.00;15.68;;;36.10;1.00;;;;;;5047513;28;20028;-74
2024/01/29 14:07:38;;;;;;;25.48;16.27;;;36.20;1.00;;;;;;5032603;28;20091;-75
2024/01/29 14:10:05;;;;;;;33.47;17.33;;;36.20;1.00;;;;;;5049931;28;20136;-75
2024/01/29 14:12:31;;;;;;;31.17;18.13;;;;;;;;;;5050394;28;20037;-75
2024/01/29 14:15:01;;;;;;;30.90;18.27;;;;;;;;;;5033962;28;20381;-75
2024/01/29 14:17:27;;;;;;;35.13;18.27;;;;;;;;;;5033063;28;20041;-75
2024/01/29 14:19:52;;;;;;;30.42;18.52;;;36.30;1.00;;;;;;5033280;28;20133;-75